Helene — V7VF9 — position and weather

sailwx.info

Track history (hours):
 
Tides and Currents Weather Stations Pressure Air Temp Water Temp Dewpoint Dewpoint Depression Visibility Wind Speed Wind Dir Waves Ship Positions

Helene

Last reported at 2015-Mar-26 13:33 UTC. Time now 2015-Mar-31 11:24 UTC.
Position N 38°21' W 074°42'.

Length 207 m; draft 9 m.

Type: Cargo ship. MMSI: 538090420.

Date/timePositionNaut miles runAvg speedWind from/ knotsBaromVisibWave heightAir tempDewpointWater temp
2015-Mar-26 13:33N 38°21' W 074°42'1616.5
2015-Mar-26 12:33N 38°35' W 074°51'9 9.4
2015-Mar-26 11:33N 38°43' W 074°58'9 9.2
2015-Mar-26 10:33N 38°51' W 075°04'1717.0
2015-Mar-26 09:33N 39°07' W 075°12'1616.2
2015-Mar-26 08:33N 39°20' W 075°25'1413.6
2015-Mar-26 07:33N 39°32' W 075°33'1211.5
2015-Mar-26 06:34N 39°43' W 075°31'0 0.1
2015-Mar-26 05:33N 39°43' W 075°31'0 0.0
2015-Mar-26 04:33N 39°43' W 075°31'0 0.0
2015-Mar-26 03:33N 39°43' W 075°31'0 0.0
2015-Mar-26 02:33N 39°43' W 075°31'0 0.0
2015-Mar-26 01:33N 39°43' W 075°31'0 0.0
2015-Mar-26 00:33N 39°43' W 075°31'0 0.0
2015-Mar-25 23:33N 39°43' W 075°31'0 0.0
2015-Mar-25 22:33N 39°43' W 075°31'0 0.0
2015-Mar-25 21:33N 39°43' W 075°31'0 0.0
2015-Mar-25 20:33N 39°43' W 075°31'0 0.0
2015-Mar-25 19:33N 39°43' W 075°31'0 0.0
2015-Mar-25 18:30N 39°43' W 075°31'0 0.0
2015-Mar-25 17:33N 39°43' W 075°31'0 0.0
2015-Mar-25 16:33N 39°43' W 075°31'0 0.0
2015-Mar-25 15:33N 39°43' W 075°31'0 0.0
2015-Mar-24 04:32N 39°43' W 075°31'0 0.0
2015-Mar-24 03:32N 39°43' W 075°31'0 0.0
2015-Mar-24 02:32N 39°43' W 075°31'0 0.0
2015-Mar-24 01:32N 39°43' W 075°31'0 0.0
2015-Mar-24 00:32N 39°43' W 075°31'0 0.0
2015-Mar-23 23:26N 39°43' W 075°31'0 0.0
2015-Mar-23 22:32N 39°43' W 075°31'0 0.0
2015-Mar-23 21:32N 39°43' W 075°31'0 0.0
2015-Mar-23 20:32N 39°43' W 075°31'0 0.0
2015-Mar-23 19:32N 39°43' W 075°31'0 0.0
2015-Mar-23 18:32N 39°43' W 075°31'0 0.0
2015-Mar-23 17:31N 39°43' W 075°31'0 0.0
2015-Mar-23 16:31N 39°43' W 075°31'0 0.0
2015-Mar-23 15:31N 39°43' W 075°31'0 0.0
2015-Mar-23 14:31N 39°43' W 075°31'0 0.0
2015-Mar-23 13:31N 39°43' W 075°31'0 0.0
2015-Mar-23 12:31N 39°43' W 075°31'0 0.0
2015-Mar-23 11:31N 39°43' W 075°31'0 0.0
2015-Mar-23 10:31N 39°43' W 075°31'1 1.3
2015-Mar-23 09:33N 39°42' W 075°31'9 9.3
2015-Mar-23 08:33N 39°33' W 075°33'1111.5
2015-Mar-23 07:33N 39°22' W 075°27'1313.5
2015-Mar-23 06:33N 39°11' W 075°16'1515.1
2015-Mar-23 05:33N 38°58' W 075°07'1211.7
2015-Mar-23 04:33N 38°47' W 075°02'9 9.3
2015-Mar-23 03:33N 38°41' W 074°53'10 9.9
2015-Mar-23 02:33N 38°33' W 074°45'1413.0
2015-Mar-23 01:30N 38°20' W 074°42'64218.8
2015-Mar-21 15:17N 27°55' W 077°41'3620.8
2015-Mar-21 13:33N 27°45' W 078°20'2120.8
2015-Mar-21 12:33N 27°39' W 078°42'2121.3
2015-Mar-21 11:34N 27°33' W 079°05'4319.9
2015-Mar-21 09:24N 26°53' W 079°23'1922.9
2015-Mar-21 08:33N 26°34' W 079°24'2323.1
2015-Mar-21 07:33N 26°11' W 079°28'2523.9
2015-Mar-21 06:31N 25°47' W 079°32'  
Track history (hours):
 
Tides and Currents Weather Stations Pressure Air Temp Water Temp Dewpoint Dewpoint Depression Visibility Wind Speed Wind Dir Waves Ship Positions

Helene

Last reported at 2015-Mar-26 13:33 UTC. Time now 2015-Mar-31 11:24 UTC.
Position N 38°21' W 074°42'.

Length 207 m; draft 9 m.

Type: Cargo ship. MMSI: 538090420.

Date/timePositionNaut miles runAvg speedWind from/ knotsBaromVisibWave heightAir tempDewpointWater temp
2015-Mar-26 13:33N 38°21' W 074°42'1616.5
2015-Mar-26 12:33N 38°35' W 074°51'9 9.4
2015-Mar-26 11:33N 38°43' W 074°58'9 9.2
2015-Mar-26 10:33N 38°51' W 075°04'1717.0
2015-Mar-26 09:33N 39°07' W 075°12'1616.2
2015-Mar-26 08:33N 39°20' W 075°25'1413.6
2015-Mar-26 07:33N 39°32' W 075°33'1211.5
2015-Mar-26 06:34N 39°43' W 075°31'0 0.1
2015-Mar-26 05:33N 39°43' W 075°31'0 0.0
2015-Mar-26 04:33N 39°43' W 075°31'0 0.0
2015-Mar-26 03:33N 39°43' W 075°31'0 0.0
2015-Mar-26 02:33N 39°43' W 075°31'0 0.0
2015-Mar-26 01:33N 39°43' W 075°31'0 0.0
2015-Mar-26 00:33N 39°43' W 075°31'0 0.0
2015-Mar-25 23:33N 39°43' W 075°31'0 0.0
2015-Mar-25 22:33N 39°43' W 075°31'0 0.0
2015-Mar-25 21:33N 39°43' W 075°31'0 0.0
2015-Mar-25 20:33N 39°43' W 075°31'0 0.0
2015-Mar-25 19:33N 39°43' W 075°31'0 0.0
2015-Mar-25 18:30N 39°43' W 075°31'0 0.0
2015-Mar-25 17:33N 39°43' W 075°31'0 0.0
2015-Mar-25 16:33N 39°43' W 075°31'0 0.0
2015-Mar-25 15:33N 39°43' W 075°31'0 0.0
2015-Mar-24 04:32N 39°43' W 075°31'0 0.0
2015-Mar-24 03:32N 39°43' W 075°31'0 0.0
2015-Mar-24 02:32N 39°43' W 075°31'0 0.0
2015-Mar-24 01:32N 39°43' W 075°31'0 0.0
2015-Mar-24 00:32N 39°43' W 075°31'0 0.0
2015-Mar-23 23:26N 39°43' W 075°31'0 0.0
2015-Mar-23 22:32N 39°43' W 075°31'0 0.0
2015-Mar-23 21:32N 39°43' W 075°31'0 0.0
2015-Mar-23 20:32N 39°43' W 075°31'0 0.0
2015-Mar-23 19:32N 39°43' W 075°31'0 0.0
2015-Mar-23 18:32N 39°43' W 075°31'0 0.0
2015-Mar-23 17:31N 39°43' W 075°31'0 0.0
2015-Mar-23 16:31N 39°43' W 075°31'0 0.0
2015-Mar-23 15:31N 39°43' W 075°31'0 0.0
2015-Mar-23 14:31N 39°43' W 075°31'0 0.0
2015-Mar-23 13:31N 39°43' W 075°31'0 0.0
2015-Mar-23 12:31N 39°43' W 075°31'0 0.0
2015-Mar-23 11:31N 39°43' W 075°31'0 0.0
2015-Mar-23 10:31N 39°43' W 075°31'1 1.3
2015-Mar-23 09:33N 39°42' W 075°31'9 9.3
2015-Mar-23 08:33N 39°33' W 075°33'1111.5
2015-Mar-23 07:33N 39°22' W 075°27'1313.5
2015-Mar-23 06:33N 39°11' W 075°16'1515.1
2015-Mar-23 05:33N 38°58' W 075°07'1211.7
2015-Mar-23 04:33N 38°47' W 075°02'9 9.3
2015-Mar-23 03:33N 38°41' W 074°53'10 9.9
2015-Mar-23 02:33N 38°33' W 074°45'1413.0
2015-Mar-23 01:30N 38°20' W 074°42'64218.8
2015-Mar-21 15:17N 27°55' W 077°41'3620.8
2015-Mar-21 13:33N 27°45' W 078°20'2120.8
2015-Mar-21 12:33N 27°39' W 078°42'2121.3
2015-Mar-21 11:34N 27°33' W 079°05'4319.9
2015-Mar-21 09:24N 26°53' W 079°23'1922.9
2015-Mar-21 08:33N 26°34' W 079°24'2323.1
2015-Mar-21 07:33N 26°11' W 079°28'2523.9
2015-Mar-21 06:31N 25°47' W 079°32'  

Dump ship's entire track history